sensor_id;sensor_type;location;lat;lon;timestamp;pressure;altitude;pressure_sealevel;temperature;humidity
62946;BME280;52164;52.212;-1.010;2023-04-08T00:02:16;101442.45;;;4.98;65.21
62946;BME280;52164;52.212;-1.010;2023-04-08T00:04:41;101440.58;;;4.96;65.05
62946;BME280;52164;52.212;-1.010;2023-04-08T00:07:06;101440.46;;;4.93;65.21
62946;BME280;52164;52.212;-1.010;2023-04-08T00:09:32;101446.81;;;4.87;65.27
62946;BME280;52164;52.212;-1.010;2023-04-08T00:11:57;101443.09;;;4.83;65.61
62946;BME280;52164;52.212;-1.010;2023-04-08T00:14:23;101443.98;;;4.78;65.66
62946;BME280;52164;52.212;-1.010;2023-04-08T00:16:48;101443.61;;;4.73;65.63
62946;BME280;52164;52.212;-1.010;2023-04-08T00:19:13;101445.90;;;4.68;65.80
62946;BME280;52164;52.212;-1.010;2023-04-08T00:21:39;101447.69;;;4.64;66.13
62946;BME280;52164;52.212;-1.010;2023-04-08T00:24:05;101450.17;;;4.60;66.05
62946;BME280;52164;52.212;-1.010;2023-04-08T00:26:31;101446.42;;;4.54;66.17
62946;BME280;52164;52.212;-1.010;2023-04-08T00:28:56;101447.31;;;4.50;65.88
62946;BME280;52164;52.212;-1.010;2023-04-08T00:31:21;101446.89;;;4.48;66.14
62946;BME280;52164;52.212;-1.010;2023-04-08T00:33:46;101447.08;;;4.44;66.47
62946;BME280;52164;52.212;-1.010;2023-04-08T00:36:12;101446.08;;;4.41;66.57
62946;BME280;52164;52.212;-1.010;2023-04-08T00:38:37;101446.66;;;4.38;66.57
62946;BME280;52164;52.212;-1.010;2023-04-08T00:41:02;101446.70;;;4.35;66.52
62946;BME280;52164;52.212;-1.010;2023-04-08T00:43:28;101446.30;;;4.29;66.71
62946;BME280;52164;52.212;-1.010;2023-04-08T00:45:53;101448.23;;;4.25;67.03
62946;BME280;52164;52.212;-1.010;2023-04-08T00:48:18;101447.23;;;4.21;67.11
62946;BME280;52164;52.212;-1.010;2023-04-08T00:50:43;101446.39;;;4.18;66.79
62946;BME280;52164;52.212;-1.010;2023-04-08T00:53:11;101441.02;;;4.16;67.40
62946;BME280;52164;52.212;-1.010;2023-04-08T00:55:37;101441.94;;;4.14;67.40
62946;BME280;52164;52.212;-1.010;2023-04-08T00:58:02;101444.30;;;4.11;67.36
62946;BME280;52164;52.212;-1.010;2023-04-08T01:00:30;101445.35;;;4.06;66.93
62946;BME280;52164;52.212;-1.010;2023-04-08T01:05:27;101445.29;;;3.96;66.89
62946;BME280;52164;52.212;-1.010;2023-04-08T01:07:54;101443.45;;;3.90;67.01
62946;BME280;52164;52.212;-1.010;2023-04-08T01:10:22;101445.59;;;3.86;67.30
62946;BME280;52164;52.212;-1.010;2023-04-08T01:12:49;101443.73;;;3.84;67.68
62946;BME280;52164;52.212;-1.010;2023-04-08T01:15:15;101446.13;;;3.82;67.86
62946;BME280;52164;52.212;-1.010;2023-04-08T01:17:41;101449.90;;;3.79;67.69
62946;BME280;52164;52.212;-1.010;2023-04-08T01:20:07;101449.76;;;3.76;67.71
62946;BME280;52164;52.212;-1.010;2023-04-08T01:22:40;101449.41;;;3.73;67.77
62946;BME280;52164;52.212;-1.010;2023-04-08T01:25:11;101445.94;;;3.69;68.23
62946;BME280;52164;52.212;-1.010;2023-04-08T01:27:38;101448.27;;;3.66;68.18
62946;BME280;52164;52.212;-1.010;2023-04-08T01:30:05;101448.30;;;3.63;68.53
62946;BME280;52164;52.212;-1.010;2023-04-08T01:32:31;101447.08;;;3.59;68.41
62946;BME280;52164;52.212;-1.010;2023-04-08T01:34:58;101450.41;;;3.54;68.24
62946;BME280;52164;52.212;-1.010;2023-04-08T01:37:24;101448.09;;;3.50;68.05
62946;BME280;52164;52.212;-1.010;2023-04-08T01:39:51;101449.16;;;3.46;67.88
62946;BME280;52164;52.212;-1.010;2023-04-08T01:42:19;101451.42;;;3.41;67.77
62946;BME280;52164;52.212;-1.010;2023-04-08T01:44:46;101452.67;;;3.38;68.41
62946;BME280;52164;52.212;-1.010;2023-04-08T01:47:12;101448.80;;;3.34;68.73
62946;BME280;52164;52.212;-1.010;2023-04-08T01:49:38;101455.55;;;3.31;68.74
62946;BME280;52164;52.212;-1.010;2023-04-08T01:52:03;101454.32;;;3.27;68.57
62946;BME280;52164;52.212;-1.010;2023-04-08T01:54:29;101453.60;;;3.23;68.43
62946;BME280;52164;52.212;-1.010;2023-04-08T01:56:54;101452.83;;;3.17;68.70
62946;BME280;52164;52.212;-1.010;2023-04-08T01:59:21;101455.84;;;3.13;69.46
62946;BME280;52164;52.212;-1.010;2023-04-08T02:01:49;101453.95;;;3.11;69.50
62946;BME280;52164;52.212;-1.010;2023-04-08T02:04:16;101455.21;;;3.07;69.73
62946;BME280;52164;52.212;-1.010;2023-04-08T02:06:42;101455.48;;;3.06;69.25
62946;BME280;52164;52.212;-1.010;2023-04-08T02:09:08;101458.31;;;3.06;69.74
62946;BME280;52164;52.212;-1.010;2023-04-08T02:11:33;101460.16;;;3.04;69.86
62946;BME280;52164;52.212;-1.010;2023-04-08T02:13:58;101459.38;;;3.02;70.07
62946;BME280;52164;52.212;-1.010;2023-04-08T02:16:29;101463.38;;;3.00;69.10
62946;BME280;52164;52.212;-1.010;2023-04-08T02:18:57;101460.72;;;2.97;69.82
62946;BME280;52164;52.212;-1.010;2023-04-08T02:21:26;101462.30;;;2.96;69.83
62946;BME280;52164;52.212;-1.010;2023-04-08T02:23:57;101463.77;;;2.98;69.96
62946;BME280;52164;52.212;-1.010;2023-04-08T02:26:23;101467.21;;;3.00;69.97
62946;BME280;52164;52.212;-1.010;2023-04-08T02:28:49;101466.59;;;3.01;70.18
62946;BME280;52164;52.212;-1.010;2023-04-08T02:31:16;101469.58;;;3.05;69.89
62946;BME280;52164;52.212;-1.010;2023-04-08T02:33:43;101470.02;;;3.07;70.19
62946;BME280;52164;52.212;-1.010;2023-04-08T02:36:08;101472.05;;;3.09;70.14
62946;BME280;52164;52.212;-1.010;2023-04-08T02:38:35;101474.10;;;3.08;70.09
62946;BME280;52164;52.212;-1.010;2023-04-08T02:41:01;101478.36;;;3.08;70.15
62946;BME280;52164;52.212;-1.010;2023-04-08T02:43:26;101476.39;;;3.07;70.28
62946;BME280;52164;52.212;-1.010;2023-04-08T02:45:56;101475.34;;;3.04;70.11
62946;BME280;52164;52.212;-1.010;2023-04-08T02:48:22;101479.00;;;2.99;69.70
62946;BME280;52164;52.212;-1.010;2023-04-08T02:50:47;101476.52;;;2.95;69.63
62946;BME280;52164;52.212;-1.010;2023-04-08T02:53:12;101481.08;;;2.91;69.57
62946;BME280;52164;52.212;-1.010;2023-04-08T02:55:38;101483.83;;;2.86;69.60
62946;BME280;52164;52.212;-1.010;2023-04-08T02:58:04;101486.42;;;2.84;69.73
62946;BME280;52164;52.212;-1.010;2023-04-08T03:00:29;101490.39;;;2.82;70.11
62946;BME280;52164;52.212;-1.010;2023-04-08T03:02:55;101490.95;;;2.79;70.30
62946;BME280;52164;52.212;-1.010;2023-04-08T03:05:22;101493.73;;;2.75;69.98
62946;BME280;52164;52.212;-1.010;2023-04-08T03:07:47;101499.00;;;2.71;70.17
62946;BME280;52164;52.212;-1.010;2023-04-08T03:10:12;101498.73;;;2.65;69.89
62946;BME280;52164;52.212;-1.010;2023-04-08T03:12:38;101499.23;;;2.60;70.11
62946;BME280;52164;52.212;-1.010;2023-04-08T03:15:03;101496.48;;;2.55;69.76
62946;BME280;52164;52.212;-1.010;2023-04-08T03:17:30;101499.06;;;2.50;70.52
62946;BME280;52164;52.212;-1.010;2023-04-08T03:19:58;101500.98;;;2.46;70.68
62946;BME280;52164;52.212;-1.010;2023-04-08T03:22:23;101504.52;;;2.42;70.29
62946;BME280;52164;52.212;-1.010;2023-04-08T03:24:49;101507.52;;;2.38;70.61
62946;BME280;52164;52.212;-1.010;2023-04-08T03:27:14;101503.59;;;2.34;70.27
62946;BME280;52164;52.212;-1.010;2023-04-08T03:29:40;101505.36;;;2.31;70.64
62946;BME280;52164;52.212;-1.010;2023-04-08T03:32:05;101505.79;;;2.25;71.09
62946;BME280;52164;52.212;-1.010;2023-04-08T03:34:30;101509.80;;;2.21;71.31
62946;BME280;52164;52.212;-1.010;2023-04-08T03:36:57;101513.04;;;2.19;71.47
62946;BME280;52164;52.212;-1.010;2023-04-08T03:39:22;101511.88;;;2.17;71.62
62946;BME280;52164;52.212;-1.010;2023-04-08T03:41:48;101513.02;;;2.15;71.67
62946;BME280;52164;52.212;-1.010;2023-04-08T03:44:13;101513.30;;;2.13;71.60
62946;BME280;52164;52.212;-1.010;2023-04-08T03:46:38;101518.23;;;2.13;71.82
62946;BME280;52164;52.212;-1.010;2023-04-08T03:49:04;101517.05;;;2.11;71.89
62946;BME280;52164;52.212;-1.010;2023-04-08T03:51:29;101514.61;;;2.08;71.90
62946;BME280;52164;52.212;-1.010;2023-04-08T03:53:54;101512.83;;;2.07;72.25
62946;BME280;52164;52.212;-1.010;2023-04-08T03:56:20;101512.36;;;2.05;72.42
62946;BME280;52164;52.212;-1.010;2023-04-08T03:58:45;101511.16;;;2.02;72.38
62946;BME280;52164;52.212;-1.010;2023-04-08T04:01:11;101516.61;;;2.02;72.13
62946;BME280;52164;52.212;-1.010;2023-04-08T04:03:36;101522.86;;;2.04;72.44
62946;BME280;52164;52.212;-1.010;2023-04-08T04:06:01;101524.48;;;2.04;71.90
62946;BME280;52164;52.212;-1.010;2023-04-08T04:08:26;101523.42;;;2.04;71.68
62946;BME280;52164;52.212;-1.010;2023-04-08T04:10:52;101525.80;;;2.06;71.87
62946;BME280;52164;52.212;-1.010;2023-04-08T04:13:17;101526.26;;;2.08;71.94
62946;BME280;52164;52.212;-1.010;2023-04-08T04:15:43;101524.40;;;2.09;72.23
62946;BME280;52164;52.212;-1.010;2023-04-08T04:18:09;101521.80;;;2.10;72.21
62946;BME280;52164;52.212;-1.010;2023-04-08T04:20:34;101522.36;;;2.11;72.16
62946;BME280;52164;52.212;-1.010;2023-04-08T04:23:00;101529.29;;;2.13;72.01
62946;BME280;52164;52.212;-1.010;2023-04-08T04:25:25;101530.56;;;2.13;71.69
62946;BME280;52164;52.212;-1.010;2023-04-08T04:27:51;101532.26;;;2.12;71.38
62946;BME280;52164;52.212;-1.010;2023-04-08T04:30:16;101533.37;;;2.09;71.63
62946;BME280;52164;52.212;-1.010;2023-04-08T04:32:43;101534.21;;;2.05;71.55
62946;BME280;52164;52.212;-1.010;2023-04-08T04:35:09;101533.88;;;2.02;71.66
62946;BME280;52164;52.212;-1.010;2023-04-08T04:37:35;101534.66;;;2.00;71.70
62946;BME280;52164;52.212;-1.010;2023-04-08T04:40:01;101541.92;;;1.97;71.87
62946;BME280;52164;52.212;-1.010;2023-04-08T04:42:26;101543.24;;;1.96;72.36
62946;BME280;52164;52.212;-1.010;2023-04-08T04:44:51;101549.68;;;1.91;72.06
62946;BME280;52164;52.212;-1.010;2023-04-08T04:47:18;101554.67;;;1.89;72.34
62946;BME280;52164;52.212;-1.010;2023-04-08T04:49:43;101556.98;;;1.86;72.43
62946;BME280;52164;52.212;-1.010;2023-04-08T04:52:09;101559.60;;;1.82;72.50
62946;BME280;52164;52.212;-1.010;2023-04-08T04:54:35;101560.64;;;1.78;72.32
62946;BME280;52164;52.212;-1.010;2023-04-08T04:57:00;101563.11;;;1.75;72.38
62946;BME280;52164;52.212;-1.010;2023-04-08T04:59:26;101564.86;;;1.71;72.20
62946;BME280;52164;52.212;-1.010;2023-04-08T05:01:51;101569.42;;;1.68;72.16
62946;BME280;52164;52.212;-1.010;2023-04-08T05:04:20;101569.01;;;1.64;72.22
62946;BME280;52164;52.212;-1.010;2023-04-08T05:06:45;101575.16;;;1.60;72.47
62946;BME280;52164;52.212;-1.010;2023-04-08T05:09:10;101572.38;;;1.57;72.76
62946;BME280;52164;52.212;-1.010;2023-04-08T05:11:36;101575.73;;;1.54;73.08
62946;BME280;52164;52.212;-1.010;2023-04-08T05:14:01;101577.55;;;1.51;73.07
62946;BME280;52164;52.212;-1.010;2023-04-08T05:16:26;101576.88;;;1.49;73.12
62946;BME280;52164;52.212;-1.010;2023-04-08T05:18:52;101576.81;;;1.45;73.18
62946;BME280;52164;52.212;-1.010;2023-04-08T05:21:17;101578.46;;;1.43;73.15
62946;BME280;52164;52.212;-1.010;2023-04-08T05:23:42;101582.60;;;1.41;73.40
62946;BME280;52164;52.212;-1.010;2023-04-08T05:26:07;101578.32;;;1.40;73.45
62946;BME280;52164;52.212;-1.010;2023-04-08T05:28:33;101578.23;;;1.38;73.75
62946;BME280;52164;52.212;-1.010;2023-04-08T05:30:58;101579.79;;;1.37;73.65
62946;BME280;52164;52.212;-1.010;2023-04-08T05:33:24;101582.70;;;1.37;73.89
62946;BME280;52164;52.212;-1.010;2023-04-08T05:35:50;101584.52;;;1.37;73.58
62946;BME280;52164;52.212;-1.010;2023-04-08T05:38:17;101587.60;;;1.39;73.61
62946;BME280;52164;52.212;-1.010;2023-04-08T05:40:42;101591.55;;;1.40;73.62
62946;BME280;52164;52.212;-1.010;2023-04-08T05:43:07;101592.42;;;1.44;73.42
62946;BME280;52164;52.212;-1.010;2023-04-08T05:45:32;101589.55;;;1.50;73.51
62946;BME280;52164;52.212;-1.010;2023-04-08T05:47:58;101593.94;;;1.56;73.48
62946;BME280;52164;52.212;-1.010;2023-04-08T05:50:23;101594.82;;;1.63;73.48
62946;BME280;52164;52.212;-1.010;2023-04-08T05:52:49;101596.64;;;1.70;73.45
62946;BME280;52164;52.212;-1.010;2023-04-08T05:55:14;101598.19;;;1.76;73.41
62946;BME280;52164;52.212;-1.010;2023-04-08T05:57:40;101602.77;;;1.83;73.26
62946;BME280;52164;52.212;-1.010;2023-04-08T06:00:06;101610.48;;;1.92;73.08
62946;BME280;52164;52.212;-1.010;2023-04-08T06:02:32;101614.66;;;2.02;72.75
62946;BME280;52164;52.212;-1.010;2023-04-08T06:04:57;101615.09;;;2.09;72.89
62946;BME280;52164;52.212;-1.010;2023-04-08T06:07:23;101620.57;;;2.17;72.62
62946;BME280;52164;52.212;-1.010;2023-04-08T06:09:48;101623.29;;;2.22;72.86
62946;BME280;52164;52.212;-1.010;2023-04-08T06:12:13;101627.84;;;2.28;72.84
62946;BME280;52164;52.212;-1.010;2023-04-08T06:14:38;101632.30;;;2.36;72.75
62946;BME280;52164;52.212;-1.010;2023-04-08T06:17:04;101634.54;;;2.42;72.39
62946;BME280;52164;52.212;-1.010;2023-04-08T06:19:30;101641.98;;;2.46;72.37
62946;BME280;52164;52.212;-1.010;2023-04-08T06:21:55;101637.57;;;2.50;72.93
62946;BME280;52164;52.212;-1.010;2023-04-08T06:24:24;101639.88;;;2.54;73.31
62946;BME280;52164;52.212;-1.010;2023-04-08T06:26:50;101637.58;;;2.60;73.21
62946;BME280;52164;52.212;-1.010;2023-04-08T06:29:17;101642.89;;;2.68;73.70
62946;BME280;52164;52.212;-1.010;2023-04-08T06:31:42;101639.42;;;2.76;73.57
62946;BME280;52164;52.212;-1.010;2023-04-08T06:34:07;101645.29;;;2.84;73.97
62946;BME280;52164;52.212;-1.010;2023-04-08T06:36:32;101647.64;;;2.92;74.23
62946;BME280;52164;52.212;-1.010;2023-04-08T06:38:58;101648.22;;;3.01;74.29
62946;BME280;52164;52.212;-1.010;2023-04-08T06:41:23;101649.62;;;3.12;74.57
62946;BME280;52164;52.212;-1.010;2023-04-08T06:43:48;101650.84;;;3.26;75.07
62946;BME280;52164;52.212;-1.010;2023-04-08T06:46:14;101650.75;;;3.43;75.01
62946;BME280;52164;52.212;-1.010;2023-04-08T06:48:39;101649.17;;;3.58;74.65
62946;BME280;52164;52.212;-1.010;2023-04-08T06:51:04;101655.34;;;3.73;75.01
62946;BME280;52164;52.212;-1.010;2023-04-08T06:53:31;101656.27;;;3.86;74.77
62946;BME280;52164;52.212;-1.010;2023-04-08T06:55:57;101653.63;;;3.98;74.93
62946;BME280;52164;52.212;-1.010;2023-04-08T06:58:22;101656.17;;;4.12;74.72
62946;BME280;52164;52.212;-1.010;2023-04-08T07:00:48;101658.55;;;4.25;74.61
62946;BME280;52164;52.212;-1.010;2023-04-08T07:03:13;101663.03;;;4.39;74.49
62946;BME280;52164;52.212;-1.010;2023-04-08T07:05:38;101659.21;;;4.49;74.39
62946;BME280;52164;52.212;-1.010;2023-04-08T07:08:07;101661.73;;;4.62;74.12
62946;BME280;52164;52.212;-1.010;2023-04-08T07:10:33;101664.58;;;4.75;73.87
62946;BME280;52164;52.212;-1.010;2023-04-08T07:12:59;101662.45;;;4.84;73.85
62946;BME280;52164;52.212;-1.010;2023-04-08T07:15:24;101663.48;;;4.91;73.85
62946;BME280;52164;52.212;-1.010;2023-04-08T07:17:49;101661.91;;;4.97;73.71
62946;BME280;52164;52.212;-1.010;2023-04-08T07:20:15;101661.63;;;5.02;73.62
62946;BME280;52164;52.212;-1.010;2023-04-08T07:22:41;101660.80;;;5.08;73.62
62946;BME280;52164;52.212;-1.010;2023-04-08T07:25:06;101664.05;;;5.14;73.63
62946;BME280;52164;52.212;-1.010;2023-04-08T07:27:32;101669.23;;;5.20;73.54
62946;BME280;52164;52.212;-1.010;2023-04-08T07:29:58;101670.78;;;5.28;73.73
62946;BME280;52164;52.212;-1.010;2023-04-08T07:32:23;101675.80;;;5.38;73.57
62946;BME280;52164;52.212;-1.010;2023-04-08T07:34:49;101675.83;;;5.47;73.68
62946;BME280;52164;52.212;-1.010;2023-04-08T07:37:14;101671.26;;;5.53;73.68
62946;BME280;52164;52.212;-1.010;2023-04-08T07:39:40;101675.50;;;5.62;73.80
62946;BME280;52164;52.212;-1.010;2023-04-08T07:42:06;101671.51;;;5.64;73.74
62946;BME280;52164;52.212;-1.010;2023-04-08T07:44:32;101680.40;;;5.74;73.49
62946;BME280;52164;52.212;-1.010;2023-04-08T07:46:57;101685.91;;;5.79;73.67
62946;BME280;52164;52.212;-1.010;2023-04-08T07:49:22;101688.55;;;5.93;73.87
62946;BME280;52164;52.212;-1.010;2023-04-08T07:51:47;101692.25;;;6.06;73.54
62946;BME280;52164;52.212;-1.010;2023-04-08T07:54:13;101691.11;;;6.18;73.39
62946;BME280;52164;52.212;-1.010;2023-04-08T07:56:41;101695.08;;;6.35;73.49
62946;BME280;52164;52.212;-1.010;2023-04-08T07:59:08;101694.42;;;6.46;73.58
62946;BME280;52164;52.212;-1.010;2023-04-08T08:01:33;101698.80;;;6.54;73.41
62946;BME280;52164;52.212;-1.010;2023-04-08T08:03:59;101703.20;;;6.64;73.13
62946;BME280;52164;52.212;-1.010;2023-04-08T08:06:26;101697.04;;;6.76;72.98
62946;BME280;52164;52.212;-1.010;2023-04-08T08:08:52;101697.24;;;6.86;72.86
62946;BME280;52164;52.212;-1.010;2023-04-08T08:11:17;101698.38;;;6.98;72.78
62946;BME280;52164;52.212;-1.010;2023-04-08T08:13:43;101701.13;;;7.07;72.51
62946;BME280;52164;52.212;-1.010;2023-04-08T08:16:08;101701.57;;;7.15;72.34
62946;BME280;52164;52.212;-1.010;2023-04-08T08:18:35;101704.36;;;7.25;72.21
62946;BME280;52164;52.212;-1.010;2023-04-08T08:21:01;101703.61;;;7.34;71.90
62946;BME280;52164;52.212;-1.010;2023-04-08T08:23:26;101706.34;;;7.42;71.51
62946;BME280;52164;52.212;-1.010;2023-04-08T08:25:59;101706.58;;;7.49;70.94
62946;BME280;52164;52.212;-1.010;2023-04-08T08:28:25;101711.39;;;7.55;70.70
62946;BME280;52164;52.212;-1.010;2023-04-08T08:30:51;101716.17;;;7.66;70.62
62946;BME280;52164;52.212;-1.010;2023-04-08T08:33:16;101720.35;;;7.75;70.87
62946;BME280;52164;52.212;-1.010;2023-04-08T08:35:41;101722.41;;;7.79;70.88
62946;BME280;52164;52.212;-1.010;2023-04-08T08:38:07;101722.37;;;7.83;70.81
62946;BME280;52164;52.212;-1.010;2023-04-08T08:40:32;101724.61;;;7.87;70.59
62946;BME280;52164;52.212;-1.010;2023-04-08T08:42:59;101729.77;;;7.87;70.62
62946;BME280;52164;52.212;-1.010;2023-04-08T08:45:25;101732.65;;;7.88;70.82
62946;BME280;52164;52.212;-1.010;2023-04-08T08:47:51;101734.60;;;7.88;70.78
62946;BME280;52164;52.212;-1.010;2023-04-08T08:50:16;101738.98;;;7.91;71.00
62946;BME280;52164;52.212;-1.010;2023-04-08T08:52:50;101741.84;;;7.98;70.83
62946;BME280;52164;52.212;-1.010;2023-04-08T08:55:17;101742.41;;;8.05;71.05
62946;BME280;52164;52.212;-1.010;2023-04-08T08:57:43;101742.80;;;8.18;71.10
62946;BME280;52164;52.212;-1.010;2023-04-08T09:00:09;101744.05;;;8.37;70.97
62946;BME280;52164;52.212;-1.010;2023-04-08T09:02:35;101743.71;;;8.49;70.68
62946;BME280;52164;52.212;-1.010;2023-04-08T09:05:02;101747.81;;;8.68;70.90
62946;BME280;52164;52.212;-1.010;2023-04-08T09:07:28;101743.15;;;8.87;70.59
62946;BME280;52164;52.212;-1.010;2023-04-08T09:09:54;101749.89;;;8.99;70.20
62946;BME280;52164;52.212;-1.010;2023-04-08T09:12:20;101748.13;;;9.14;69.93
62946;BME280;52164;52.212;-1.010;2023-04-08T09:14:45;101744.60;;;9.37;69.79
62946;BME280;52164;52.212;-1.010;2023-04-08T09:17:11;101739.93;;;9.50;69.48
62946;BME280;52164;52.212;-1.010;2023-04-08T09:19:36;101740.26;;;9.57;69.28
62946;BME280;52164;52.212;-1.010;2023-04-08T09:22:04;101740.87;;;9.67;68.87
62946;BME280;52164;52.212;-1.010;2023-04-08T09:24:31;101741.41;;;9.83;68.69
62946;BME280;52164;52.212;-1.010;2023-04-08T09:26:56;101742.11;;;9.90;68.56
62946;BME280;52164;52.212;-1.010;2023-04-08T09:29:22;101740.52;;;9.91;68.46
62946;BME280;52164;52.212;-1.010;2023-04-08T09:31:48;101742.27;;;9.89;68.18
62946;BME280;52164;52.212;-1.010;2023-04-08T09:34:17;101746.19;;;9.82;68.41
62946;BME280;52164;52.212;-1.010;2023-04-08T09:36:44;101744.63;;;9.75;68.41
62946;BME280;52164;52.212;-1.010;2023-04-08T09:39:10;101746.70;;;9.73;68.46
62946;BME280;52164;52.212;-1.010;2023-04-08T09:41:36;101748.10;;;9.71;68.64
62946;BME280;52164;52.212;-1.010;2023-04-08T09:44:03;101752.98;;;9.82;68.64
62946;BME280;52164;52.212;-1.010;2023-04-08T09:46:31;101751.50;;;9.95;68.21
62946;BME280;52164;52.212;-1.010;2023-04-08T09:49:00;101751.36;;;9.89;67.61
62946;BME280;52164;52.212;-1.010;2023-04-08T09:51:28;101753.15;;;9.82;68.13
62946;BME280;52164;52.212;-1.010;2023-04-08T09:53:58;101751.54;;;9.82;68.41
62946;BME280;52164;52.212;-1.010;2023-04-08T09:56:25;101753.44;;;9.86;68.62
62946;BME280;52164;52.212;-1.010;2023-04-08T09:58:56;101751.25;;;9.93;68.83
62946;BME280;52164;52.212;-1.010;2023-04-08T10:01:27;101751.88;;;10.04;69.12
62946;BME280;52164;52.212;-1.010;2023-04-08T10:03:57;101748.36;;;10.15;69.07
62946;BME280;52164;52.212;-1.010;2023-04-08T10:06:25;101743.51;;;10.22;68.51
62946;BME280;52164;52.212;-1.010;2023-04-08T10:08:54;101741.38;;;10.31;68.66
62946;BME280;52164;52.212;-1.010;2023-04-08T10:11:19;101738.45;;;10.43;68.65
62946;BME280;52164;52.212;-1.010;2023-04-08T10:13:45;101742.14;;;10.58;68.52
62946;BME280;52164;52.212;-1.010;2023-04-08T10:16:16;101738.86;;;10.74;68.44
62946;BME280;52164;52.212;-1.010;2023-04-08T10:18:42;101733.20;;;10.87;68.52
62946;BME280;52164;52.212;-1.010;2023-04-08T10:21:40;101734.41;;;10.94;67.74
62946;BME280;52164;52.212;-1.010;2023-04-08T10:23:54;101728.77;;;10.98;67.33
62946;BME280;52164;52.212;-1.010;2023-04-08T10:26:52;101723.55;;;11.06;67.67
62946;BME280;52164;52.212;-1.010;2023-04-08T10:29:37;101723.74;;;11.18;67.39
62946;BME280;52164;52.212;-1.010;2023-04-08T10:31:51;101718.94;;;11.30;67.20
62946;BME280;52164;52.212;-1.010;2023-04-08T10:34:16;101720.41;;;11.43;67.10
62946;BME280;52164;52.212;-1.010;2023-04-08T10:36:42;101717.60;;;11.58;65.96
62946;BME280;52164;52.212;-1.010;2023-04-08T10:39:08;101719.61;;;11.73;65.49
62946;BME280;52164;52.212;-1.010;2023-04-08T10:41:34;101716.59;;;11.88;64.73
62946;BME280;52164;52.212;-1.010;2023-04-08T10:44:02;101717.52;;;12.01;64.19
62946;BME280;52164;52.212;-1.010;2023-04-08T10:46:36;101718.55;;;12.10;63.43
62946;BME280;52164;52.212;-1.010;2023-04-08T10:49:01;101721.35;;;12.21;63.16
62946;BME280;52164;52.212;-1.010;2023-04-08T10:51:29;101721.83;;;12.31;62.83
62946;BME280;52164;52.212;-1.010;2023-04-08T10:53:56;101722.46;;;12.37;62.32
62946;BME280;52164;52.212;-1.010;2023-04-08T10:56:29;101719.88;;;12.46;62.15
62946;BME280;52164;52.212;-1.010;2023-04-08T10:58:54;101725.72;;;12.57;61.80
62946;BME280;52164;52.212;-1.010;2023-04-08T11:01:21;101719.55;;;12.66;60.92
62946;BME280;52164;52.212;-1.010;2023-04-08T11:03:47;101713.04;;;12.77;60.68
62946;BME280;52164;52.212;-1.010;2023-04-08T11:06:13;101706.20;;;12.93;60.05
62946;BME280;52164;52.212;-1.010;2023-04-08T11:08:38;101704.36;;;13.06;59.82
62946;BME280;52164;52.212;-1.010;2023-04-08T11:11:04;101695.97;;;13.10;59.33
62946;BME280;52164;52.212;-1.010;2023-04-08T11:13:33;101693.23;;;13.27;59.66
62946;BME280;52164;52.212;-1.010;2023-04-08T11:15:59;101693.43;;;13.48;58.75
62946;BME280;52164;52.212;-1.010;2023-04-08T11:18:25;101687.66;;;13.72;57.58
62946;BME280;52164;52.212;-1.010;2023-04-08T11:20:51;101684.00;;;13.94;56.33
62946;BME280;52164;52.212;-1.010;2023-04-08T11:23:17;101675.83;;;14.14;56.14
62946;BME280;52164;52.212;-1.010;2023-04-08T11:25:42;101674.12;;;14.40;55.73
62946;BME280;52164;52.212;-1.010;2023-04-08T11:28:09;101672.40;;;14.66;55.44
62946;BME280;52164;52.212;-1.010;2023-04-08T11:30:34;101671.55;;;14.90;54.37
62946;BME280;52164;52.212;-1.010;2023-04-08T11:33:00;101668.85;;;15.06;53.53
62946;BME280;52164;52.212;-1.010;2023-04-08T11:35:27;101672.64;;;15.19;52.51
62946;BME280;52164;52.212;-1.010;2023-04-08T11:37:54;101670.64;;;15.27;51.70
62946;BME280;52164;52.212;-1.010;2023-04-08T11:40:19;101666.14;;;15.31;50.59
62946;BME280;52164;52.212;-1.010;2023-04-08T11:42:47;101664.52;;;15.37;50.22
62946;BME280;52164;52.212;-1.010;2023-04-08T11:45:14;101663.96;;;15.43;51.02
62946;BME280;52164;52.212;-1.010;2023-04-08T11:47:42;101663.22;;;15.57;49.61
62946;BME280;52164;52.212;-1.010;2023-04-08T11:50:08;101660.48;;;15.75;49.68
62946;BME280;52164;52.212;-1.010;2023-04-08T11:52:42;101664.41;;;15.93;49.09
62946;BME280;52164;52.212;-1.010;2023-04-08T11:55:09;101665.05;;;16.11;49.85
62946;BME280;52164;52.212;-1.010;2023-04-08T11:57:34;101657.54;;;16.35;48.80
62946;BME280;52164;52.212;-1.010;2023-04-08T12:00:02;101654.85;;;16.61;48.96
62946;BME280;52164;52.212;-1.010;2023-04-08T12:02:29;101645.50;;;16.87;49.12
62946;BME280;52164;52.212;-1.010;2023-04-08T12:04:55;101646.04;;;17.10;48.33
62946;BME280;52164;52.212;-1.010;2023-04-08T12:07:20;101648.14;;;17.35;47.38
62946;BME280;52164;52.212;-1.010;2023-04-08T12:09:45;101648.05;;;17.61;46.81
62946;BME280;52164;52.212;-1.010;2023-04-08T12:12:12;101644.88;;;17.70;45.98
62946;BME280;52164;52.212;-1.010;2023-04-08T12:14:37;101642.79;;;17.63;45.32
62946;BME280;52164;52.212;-1.010;2023-04-08T12:17:03;101643.63;;;17.68;44.95
62946;BME280;52164;52.212;-1.010;2023-04-08T12:19:28;101643.33;;;17.80;44.86
62946;BME280;52164;52.212;-1.010;2023-04-08T12:21:53;101647.13;;;17.79;44.52
62946;BME280;52164;52.212;-1.010;2023-04-08T12:24:18;101645.58;;;17.73;44.25
62946;BME280;52164;52.212;-1.010;2023-04-08T12:26:45;101643.14;;;17.80;43.20
62946;BME280;52164;52.212;-1.010;2023-04-08T12:29:10;101642.95;;;17.81;43.15
62946;BME280;52164;52.212;-1.010;2023-04-08T12:31:35;101643.44;;;17.69;42.78
62946;BME280;52164;52.212;-1.010;2023-04-08T12:34:01;101645.61;;;17.70;43.78
62946;BME280;52164;52.212;-1.010;2023-04-08T12:36:26;101642.41;;;17.80;42.50
62946;BME280;52164;52.212;-1.010;2023-04-08T12:38:52;101644.86;;;17.89;42.83
62946;BME280;52164;52.212;-1.010;2023-04-08T12:41:17;101641.52;;;17.97;43.45
62946;BME280;52164;52.212;-1.010;2023-04-08T12:43:42;101640.75;;;18.01;43.23
62946;BME280;52164;52.212;-1.010;2023-04-08T12:46:07;101638.25;;;17.99;42.87